SCEL/SCL METAR and TAF weather

Enter ICAO airport designator
Station Type Date Time Source
SCEL METAR 2020/09/18 08:00 UTC NOAA

SCEL 180800Z AUTO 06003KT 9999 NCD 08/05 Q1017


Station Type Date Time Source
SCEL Decoded METAR 2020/09/18 08:00 UTC NOAA

Pudahuel, Chile (SCEL) 33-23S 070-47W 476M
Sep 18, 2020 - 04:00 AM EDT / 2020.09.18 0800 UTC
Wind: from the ENE (060 degrees) at 3 MPH (3 KT):0
Visibility: greater than 7 mile(s):0
Temperature: 46 F (8 C)
Dew Point: 41 F (5 C)
Relative Humidity: 81%
Pressure (altimeter): 30.03 in. Hg (1017 hPa)
ob: SCEL 180800Z AUTO 06003KT 9999 NCD 08/05 Q1017
cycle: 8

Station Type Date Time Source
SCEL TAF 2020/09/18 06:03 UTC NOAA

TAF SCEL 180400Z 1806/1906 16004KT CAVOK TX27/1819Z TN07/1811Z
TEMPO 1808/1813 VRB02KT 5000 BR
BECMG 1819/1821 19015KT
BECMG 1901/1903 16004KT

Example: see airport list